createdAt,value
2019-06-15T00:00:12.019Z,100807.48
2019-06-15T00:02:40.726Z,100796.54
2019-06-15T00:05:10.452Z,100800.45
2019-06-15T00:07:42.177Z,100789.32
2019-06-15T00:10:10.924Z,100788.94
2019-06-15T00:12:39.605Z,100788.16
2019-06-15T00:15:11.510Z,100786.83
2019-06-15T00:17:40.222Z,100788.47
2019-06-15T00:20:10.367Z,100769.90
2019-06-15T00:22:40.237Z,100766.06
2019-06-15T00:25:10.388Z,100763.19
2019-06-15T00:27:41.784Z,100767.30
2019-06-15T00:30:11.246Z,100753.95
2019-06-15T00:32:40.177Z,100746.84
2019-06-15T00:35:10.690Z,100749.53
2019-06-15T00:37:39.403Z,100747.75
2019-06-15T00:40:09.873Z,100746.02
2019-06-15T00:42:38.418Z,100743.14
2019-06-15T00:45:10.717Z,100737.78
2019-06-15T00:47:39.355Z,100730.48
2019-06-15T00:50:08.982Z,100726.70
2019-06-15T00:52:38.140Z,100722.38
2019-06-15T00:55:08.632Z,100708.00
2019-06-15T00:57:40.328Z,100702.11
2019-06-15T01:00:11.122Z,100698.56
2019-06-15T01:02:39.774Z,100695.42
2019-06-15T01:05:09.244Z,100699.02
2019-06-15T01:07:37.898Z,100690.94
2019-06-15T01:10:08.163Z,100691.72
2019-06-15T01:12:36.919Z,100687.78
2019-06-15T01:15:06.803Z,100697.86
2019-06-15T01:17:37.882Z,100696.38
2019-06-15T01:20:07.952Z,100692.27
2019-06-15T01:22:39.263Z,100693.48
2019-06-15T01:25:10.436Z,100698.80
2019-06-15T01:27:41.812Z,100699.14
2019-06-15T01:30:12.777Z,100693.05
2019-06-15T01:32:41.485Z,100685.28
2019-06-15T01:35:10.678Z,100674.73
2019-06-15T01:37:39.717Z,100672.67
2019-06-15T01:40:10.257Z,100671.41
2019-06-15T01:42:40.378Z,100667.26
2019-06-15T01:45:12.311Z,100667.41
2019-06-15T01:47:40.981Z,100666.81
2019-06-15T01:50:09.940Z,100676.33
2019-06-15T01:52:38.917Z,100673.53
2019-06-15T01:55:20.093Z,100667.70
2019-06-15T01:57:38.671Z,100663.16
2019-06-15T02:00:08.206Z,100665.80
2019-06-15T02:02:36.968Z,100675.53
2019-06-15T02:05:07.606Z,100688.22
2019-06-15T02:07:36.523Z,100692.95
2019-06-15T02:10:08.206Z,100703.86
2019-06-15T02:12:36.943Z,100724.65
2019-06-15T02:15:07.480Z,100730.55
2019-06-15T02:17:36.190Z,100728.45
2019-06-15T02:20:07.005Z,100714.52
2019-06-15T02:22:35.662Z,100704.84
2019-06-15T02:25:06.148Z,100711.83
2019-06-15T02:27:34.893Z,100715.28
2019-06-15T02:30:04.662Z,100716.02
2019-06-15T02:32:33.619Z,100693.88
2019-06-15T02:35:02.395Z,100692.71
2019-06-15T02:37:31.112Z,100689.11
2019-06-15T02:39:59.836Z,100684.02
2019-06-15T02:42:28.496Z,100691.34
2019-06-15T02:44:57.266Z,100700.22
2019-06-15T02:47:25.913Z,100701.37
2019-06-15T02:49:54.601Z,100707.23
2019-06-15T02:52:23.837Z,100676.44
2019-06-15T02:54:52.575Z,100664.48
2019-06-15T02:57:21.999Z,100646.02
2019-06-15T02:59:50.723Z,100641.00
2019-06-15T03:02:19.396Z,100623.93
2019-06-15T03:04:48.058Z,100611.70
2019-06-15T03:07:16.713Z,100598.83
2019-06-15T03:09:45.391Z,100580.85
2019-06-15T03:12:14.044Z,100552.31
2019-06-15T03:14:43.893Z,100533.11
2019-06-15T03:17:12.549Z,100511.57
2019-06-15T03:19:41.541Z,100506.53
2019-06-15T03:22:10.215Z,100509.48
2019-06-15T03:24:40.382Z,100492.44
2019-06-15T03:27:12.303Z,100476.59
2019-06-15T03:29:40.960Z,100467.28
2019-06-15T03:32:09.614Z,100448.38
2019-06-15T03:34:41.066Z,100442.03
2019-06-15T03:37:09.896Z,100442.38
2019-06-15T03:39:39.171Z,100429.25
2019-06-15T03:42:07.832Z,100420.88
2019-06-15T03:44:39.236Z,100412.72
2019-06-15T03:47:07.919Z,100414.05
2019-06-15T03:49:39.471Z,100410.05
2019-06-15T03:52:09.580Z,100414.84
2019-06-15T03:54:41.421Z,100406.63
2019-06-15T03:57:10.132Z,100412.98
2019-06-15T03:59:40.203Z,100410.48
2019-06-15T04:02:10.345Z,100409.33
2019-06-15T04:04:41.855Z,100409.10
2019-06-15T04:07:10.455Z,100420.25
2019-06-15T04:09:42.263Z,100414.13
2019-06-15T04:12:10.916Z,100414.81
2019-06-15T04:14:39.572Z,100405.56
2019-06-15T04:17:10.672Z,100405.92
2019-06-15T04:19:39.393Z,100400.45
2019-06-15T04:22:09.498Z,100394.67
2019-06-15T04:24:39.614Z,100388.79
2019-06-15T04:27:11.222Z,100388.56
2019-06-15T04:29:39.881Z,100381.61
2019-06-15T04:32:08.855Z,100388.61
2019-06-15T04:34:40.768Z,100393.03
2019-06-15T04:37:09.582Z,100395.79
2019-06-15T04:39:38.341Z,100411.48
2019-06-15T04:42:08.799Z,100416.84
2019-06-15T04:44:38.248Z,100410.48
2019-06-15T04:47:08.814Z,100412.02
2019-06-15T04:49:40.718Z,100399.53
2019-06-15T04:52:09.424Z,100395.78
2019-06-15T04:54:39.592Z,100383.50
2019-06-15T04:57:08.382Z,100376.14
2019-06-15T04:59:38.760Z,100379.34
2019-06-15T05:02:08.018Z,100374.69
2019-06-15T05:04:39.314Z,100378.45
2019-06-15T05:07:09.480Z,100387.97
2019-06-15T05:09:40.054Z,100389.84
2019-06-15T05:12:09.682Z,100398.62
2019-06-15T05:14:41.067Z,100408.58
2019-06-15T05:17:09.881Z,100401.67
2019-06-15T05:19:38.686Z,100402.81
2019-06-15T05:22:07.564Z,100389.61
2019-06-15T05:24:36.498Z,100393.97
2019-06-15T05:27:06.623Z,100388.34
2019-06-15T05:29:35.667Z,100385.02
2019-06-15T05:32:04.481Z,100390.70
2019-06-15T05:34:33.172Z,100396.25
2019-06-15T05:37:01.957Z,100386.83
2019-06-15T05:39:30.619Z,100389.82
2019-06-15T05:41:59.671Z,100378.39
2019-06-15T05:44:28.272Z,100373.50
2019-06-15T05:46:57.363Z,100375.45
2019-06-15T05:49:26.135Z,100386.39
2019-06-15T05:51:54.740Z,100390.45
2019-06-15T05:54:23.472Z,100390.78
2019-06-15T05:56:52.184Z,100391.62
2019-06-15T05:59:20.895Z,100384.19
2019-06-15T06:01:49.515Z,100370.17
2019-06-15T06:04:18.329Z,100361.21
2019-06-15T06:06:47.046Z,100365.56
2019-06-15T06:09:15.826Z,100363.73
2019-06-15T06:11:44.585Z,100358.38
2019-06-15T06:14:13.613Z,100356.25
2019-06-15T06:16:42.440Z,100361.34
2019-06-15T06:19:11.160Z,100353.17
2019-06-15T06:21:39.881Z,100355.87
2019-06-15T06:24:08.617Z,100348.28
2019-06-15T06:26:37.423Z,100341.73
2019-06-15T06:29:06.156Z,100334.51
2019-06-15T06:31:34.988Z,100334.72
2019-06-15T06:34:04.124Z,100332.51
2019-06-15T06:36:32.830Z,100339.20
2019-06-15T06:39:01.558Z,100340.42
2019-06-15T06:41:30.317Z,100344.09
2019-06-15T06:43:58.987Z,100342.79
2019-06-15T06:46:27.717Z,100345.99
2019-06-15T06:48:56.541Z,100338.71
2019-06-15T06:51:25.269Z,100341.87
2019-06-15T06:53:54.526Z,100347.05
2019-06-15T06:56:25.103Z,100354.87
2019-06-15T06:58:55.589Z,100359.06
2019-06-15T07:01:26.213Z,100357.08
2019-06-15T07:03:55.241Z,100356.41
2019-06-15T07:06:23.900Z,100362.23
2019-06-15T07:08:52.789Z,100359.61
2019-06-15T07:11:21.583Z,100364.91
2019-06-15T07:13:50.312Z,100361.58
2019-06-15T07:16:19.372Z,100355.09
2019-06-15T07:18:48.138Z,100355.95
2019-06-15T07:21:16.935Z,100354.94
2019-06-15T07:23:45.673Z,100354.41
2019-06-15T07:26:14.403Z,100336.22
2019-06-15T07:28:43.136Z,100325.62
2019-06-15T07:31:12.165Z,100336.09
2019-06-15T07:33:40.878Z,100333.08
2019-06-15T07:36:09.534Z,100340.89
2019-06-15T07:38:38.568Z,100339.67
2019-06-15T07:41:07.288Z,100340.98
2019-06-15T07:43:38.893Z,100340.58
2019-06-15T07:46:08.551Z,100327.72
2019-06-15T07:48:37.265Z,100325.28
2019-06-15T07:51:05.983Z,100317.07
2019-06-15T07:53:34.805Z,100316.93
2019-06-15T07:56:03.963Z,100317.37
2019-06-15T07:58:32.689Z,100320.36
2019-06-15T08:01:01.406Z,100321.09
2019-06-15T08:03:30.011Z,100319.05
2019-06-15T08:05:58.724Z,100329.89
2019-06-15T08:08:27.442Z,100334.67
2019-06-15T08:10:56.559Z,100331.31
2019-06-15T08:13:25.234Z,100322.59
2019-06-15T08:15:53.990Z,100309.45
2019-06-15T08:18:22.699Z,100309.92
2019-06-15T08:20:51.513Z,100315.83
2019-06-15T08:23:20.224Z,100328.36
2019-06-15T08:25:48.952Z,100322.54
2019-06-15T08:28:17.733Z,100316.20
2019-06-15T08:30:47.017Z,100311.61
2019-06-15T08:33:15.758Z,100316.33
2019-06-15T08:35:44.556Z,100323.78
2019-06-15T08:38:13.314Z,100327.42
2019-06-15T08:40:42.320Z,100334.89
2019-06-15T08:43:11.141Z,100326.30
2019-06-15T08:45:39.769Z,100314.72
2019-06-15T08:48:11.039Z,100314.87
2019-06-15T08:50:39.869Z,100314.77
2019-06-15T08:53:08.572Z,100315.13
2019-06-15T08:55:37.399Z,100306.98
2019-06-15T08:58:06.128Z,100302.46
2019-06-15T09:00:34.960Z,100300.02
2019-06-15T09:03:03.683Z,100303.00
2019-06-15T09:05:32.395Z,100310.77
2019-06-15T09:08:01.318Z,100310.55
2019-06-15T09:10:30.022Z,100307.37
2019-06-15T09:12:58.734Z,100307.48
2019-06-15T09:15:53.294Z,100307.39
2019-06-15T09:18:23.050Z,100303.44
2019-06-15T09:20:51.838Z,100294.50
2019-06-15T09:23:20.969Z,100284.16
2019-06-15T09:25:49.820Z,100286.28
2019-06-15T09:28:18.526Z,100289.62
2019-06-15T09:30:47.289Z,100279.33
2019-06-15T09:33:15.982Z,100285.20
2019-06-15T09:35:44.787Z,100275.83
2019-06-15T09:38:13.602Z,100280.53
2019-06-15T09:40:42.528Z,100273.05
2019-06-15T09:43:11.230Z,100272.83
2019-06-15T09:45:40.350Z,100265.92
2019-06-15T09:48:10.572Z,100257.35
2019-06-15T09:50:42.104Z,100263.08
2019-06-15T09:53:11.218Z,100264.03
2019-06-15T09:55:40.028Z,100260.95
2019-06-15T09:58:08.749Z,100268.92
2019-06-15T10:00:40.768Z,100262.25
2019-06-15T10:03:10.157Z,100259.90
2019-06-15T10:05:40.669Z,100255.05
2019-06-15T10:08:09.501Z,100255.53
2019-06-15T10:10:39.866Z,100261.33
2019-06-15T10:13:08.549Z,100251.05
2019-06-15T10:15:37.398Z,100257.02
2019-06-15T10:18:06.107Z,100258.30
2019-06-15T10:20:34.814Z,100257.34
2019-06-15T10:23:03.631Z,100254.85
2019-06-15T10:25:32.465Z,100257.58
2019-06-15T10:28:01.473Z,100263.34
2019-06-15T10:30:30.197Z,100267.93
2019-06-15T10:32:59.030Z,100268.03
2019-06-15T10:35:27.689Z,100264.26
2019-06-15T10:37:56.367Z,100260.97
2019-06-15T10:40:25.386Z,100254.78
2019-06-15T10:42:54.429Z,100255.91
2019-06-15T10:45:23.421Z,100259.03
2019-06-15T10:47:52.237Z,100260.56
2019-06-15T10:50:21.255Z,100259.95
2019-06-15T10:52:50.068Z,100260.71
2019-06-15T10:55:18.798Z,100260.15
2019-06-15T10:57:47.641Z,100263.14
2019-06-15T11:00:17.081Z,100259.56
2019-06-15T11:02:45.836Z,100261.98
2019-06-15T11:05:17.476Z,100269.67
2019-06-15T11:07:46.529Z,100265.42
2019-06-15T11:10:17.331Z,100262.61
2019-06-15T11:12:47.124Z,100268.33
2019-06-15T11:15:16.995Z,100267.61
2019-06-15T11:17:46.471Z,100262.37
2019-06-15T11:20:16.140Z,100263.48
2019-06-15T11:22:45.537Z,100268.84
2019-06-15T11:25:15.036Z,100261.68
2019-06-15T11:27:44.564Z,100262.24
2019-06-15T11:30:14.841Z,100267.53
2019-06-15T11:32:44.619Z,100266.08
2019-06-15T11:35:14.066Z,100268.91
2019-06-15T11:37:43.067Z,100268.91
2019-06-15T11:40:12.514Z,100279.15
2019-06-15T11:42:42.496Z,100281.39
2019-06-15T11:45:11.998Z,100286.08
2019-06-15T11:47:41.220Z,100277.95
2019-06-15T11:50:12.054Z,100275.48
2019-06-15T11:52:41.499Z,100270.49
2019-06-15T11:55:11.051Z,100271.51
2019-06-15T11:57:40.103Z,100267.83
2019-06-15T12:00:10.024Z,100261.58
2019-06-15T12:02:40.787Z,100263.33
2019-06-15T12:05:10.057Z,100268.62
2019-06-15T12:07:40.773Z,100265.41
2019-06-15T12:10:10.214Z,100263.95
2019-06-15T12:12:40.704Z,100264.59
2019-06-15T12:15:10.028Z,100263.95
2019-06-15T12:17:40.605Z,100264.77
2019-06-15T12:20:10.243Z,100259.70
2019-06-15T12:22:42.400Z,100258.20
2019-06-15T12:25:11.628Z,100256.72
2019-06-15T12:27:41.121Z,100258.11
2019-06-15T12:30:12.820Z,100264.41
2019-06-15T12:32:42.201Z,100268.31
2019-06-15T12:35:11.102Z,100270.08
2019-06-15T12:37:39.814Z,100262.40
2019-06-15T12:40:09.683Z,100264.09
2019-06-15T12:42:42.560Z,100272.39
2019-06-15T12:45:13.450Z,100276.26
2019-06-15T12:47:42.774Z,100279.26
2019-06-15T12:50:11.707Z,100275.16
2019-06-15T12:52:42.775Z,100273.31
2019-06-15T12:55:11.485Z,100283.81
2019-06-15T12:57:40.325Z,100286.02
2019-06-15T13:00:10.531Z,100284.17
2019-06-15T13:02:42.363Z,100291.02
2019-06-15T13:05:11.349Z,100294.83
2019-06-15T13:07:40.117Z,100290.05
2019-06-15T13:10:10.404Z,100293.78
2019-06-15T13:12:42.208Z,100293.64
2019-06-15T13:15:11.226Z,100295.72
2019-06-15T13:17:39.937Z,100292.02
2019-06-15T13:20:08.935Z,100289.46
2019-06-15T13:22:40.852Z,100280.00
2019-06-15T13:25:09.873Z,100283.84
2019-06-15T13:27:38.584Z,100283.77
2019-06-15T13:30:10.573Z,100293.02
2019-06-15T13:32:42.150Z,100286.30
2019-06-15T13:35:10.974Z,100288.47
2019-06-15T13:37:42.325Z,100285.28
2019-06-15T13:40:10.154Z,100278.45
2019-06-15T13:42:40.498Z,100280.17
2019-06-15T13:45:13.193Z,100278.98
2019-06-15T13:47:41.961Z,100291.75
2019-06-15T13:50:11.083Z,100300.47
2019-06-15T13:52:40.008Z,100294.03
2019-06-15T13:55:09.347Z,100302.13
2019-06-15T13:57:39.507Z,100291.47
2019-06-15T14:00:09.110Z,100300.53
2019-06-15T14:02:37.876Z,100294.25
2019-06-15T14:05:07.390Z,100301.53
2019-06-15T14:07:38.975Z,100307.75
2019-06-15T14:10:07.906Z,100317.41
2019-06-15T14:12:39.934Z,100318.63
2019-06-15T14:15:08.833Z,100309.72
2019-06-15T14:17:40.614Z,100318.33
2019-06-15T14:20:09.688Z,100328.72
2019-06-15T14:22:41.533Z,100327.28
2019-06-15T14:25:10.758Z,100332.40
2019-06-15T14:27:39.474Z,100330.38
2019-06-15T14:30:09.702Z,100339.69
2019-06-15T14:32:41.436Z,100338.19
2019-06-15T14:35:11.595Z,100342.34
2019-06-15T14:37:40.305Z,100341.25
2019-06-15T14:40:12.218Z,100345.52
2019-06-15T14:42:40.933Z,100342.72
2019-06-15T14:45:11.303Z,100344.66
2019-06-15T14:47:40.025Z,100345.68
2019-06-15T14:50:09.147Z,100342.45
2019-06-15T14:52:39.312Z,100340.30
2019-06-15T14:55:08.542Z,100333.59
2019-06-15T14:57:37.468Z,100329.83
2019-06-15T15:00:09.159Z,100333.52
2019-06-15T15:02:39.542Z,100327.63
2019-06-15T15:05:14.589Z,100328.80
2019-06-15T15:07:41.694Z,100322.57
2019-06-15T15:10:11.048Z,100330.92
2019-06-15T15:12:41.821Z,100319.17
2019-06-15T15:15:10.609Z,100317.95
2019-06-15T15:17:39.314Z,100318.62
2019-06-15T15:20:08.656Z,100321.39
2019-06-15T15:22:37.569Z,100315.25
2019-06-15T15:25:08.740Z,100319.52
2019-06-15T15:27:40.435Z,100317.98
2019-06-15T15:30:13.464Z,100324.30
2019-06-15T15:32:42.219Z,100331.63
2019-06-15T15:35:11.034Z,100334.16
2019-06-15T15:37:39.742Z,100333.86
2019-06-15T15:40:11.537Z,100338.87
2019-06-15T15:42:40.226Z,100332.77
2019-06-15T15:45:10.763Z,100342.97
2019-06-15T15:47:39.459Z,100351.69
2019-06-15T15:50:11.561Z,100348.42
2019-06-15T15:52:40.277Z,100350.10
2019-06-15T15:55:10.443Z,100354.78
2019-06-15T15:57:42.019Z,100363.38
2019-06-15T16:00:12.284Z,100365.30
2019-06-15T16:02:52.061Z,100368.17
2019-06-15T16:05:11.446Z,100371.25
2019-06-15T16:07:40.071Z,100369.45
2019-06-15T16:10:08.998Z,100370.06
2019-06-15T16:12:37.719Z,100374.55
2019-06-15T16:15:12.729Z,100384.88
2019-06-15T16:17:41.332Z,100379.67
2019-06-15T16:20:20.276Z,100385.88
2019-06-15T16:22:49.002Z,100395.57
2019-06-15T16:25:17.940Z,100391.56
2019-06-15T16:27:46.662Z,100397.83
2019-06-15T16:30:39.569Z,100403.33
2019-06-15T16:33:00.506Z,100399.16
2019-06-15T16:35:21.838Z,100400.38
2019-06-15T16:37:50.559Z,100407.39
2019-06-15T16:40:22.149Z,100414.55
2019-06-15T16:42:50.855Z,100409.08
2019-06-15T16:45:19.583Z,100420.31
2019-06-15T16:47:48.407Z,100426.05
2019-06-15T16:50:17.688Z,100416.96
2019-06-15T16:52:46.986Z,100419.83
2019-06-15T16:55:16.831Z,100415.05
2019-06-15T16:57:46.633Z,100420.73
2019-06-15T17:00:21.738Z,100428.80
2019-06-15T17:02:50.855Z,100425.20
2019-06-15T17:05:19.778Z,100438.70
2019-06-15T17:07:48.669Z,100444.72
2019-06-15T17:10:20.390Z,100456.78
2019-06-15T17:12:49.213Z,100462.48
2019-06-15T17:15:17.937Z,100459.81
2019-06-15T17:17:46.751Z,100459.69
2019-06-15T17:20:18.331Z,100458.99
2019-06-15T17:22:47.350Z,100465.01
2019-06-15T17:25:16.677Z,100469.15
2019-06-15T17:27:46.938Z,100474.76
2019-06-15T17:30:17.222Z,100474.76
2019-06-15T17:32:46.009Z,100471.77
2019-06-15T17:35:16.885Z,100478.23
2019-06-15T17:37:47.029Z,100487.93
2019-06-15T17:40:16.336Z,100490.98
2019-06-15T17:42:45.080Z,100497.08
2019-06-15T17:45:16.156Z,100501.22
2019-06-15T17:47:46.674Z,100493.73
2019-06-15T17:50:17.114Z,100493.53
2019-06-15T17:52:46.822Z,100496.08
2019-06-15T17:55:17.879Z,100507.48
2019-06-15T17:57:46.601Z,100512.16
2019-06-15T18:00:17.175Z,100512.88
2019-06-15T18:02:46.215Z,100515.09
2019-06-15T18:05:14.912Z,100514.80
2019-06-15T18:07:43.728Z,100518.83
2019-06-15T18:10:12.675Z,100517.69
2019-06-15T18:12:41.532Z,100517.48
2019-06-15T18:15:10.578Z,100519.01
2019-06-15T18:17:42.474Z,100521.68
2019-06-15T18:20:11.908Z,100530.87
2019-06-15T18:22:40.721Z,100521.86
2019-06-15T18:25:09.534Z,100519.01
2019-06-15T18:27:39.563Z,100515.36
2019-06-15T18:30:09.663Z,100512.38
2019-06-15T18:32:38.473Z,100504.20
2019-06-15T18:35:10.684Z,100505.52
2019-06-15T18:37:39.418Z,100512.05
2019-06-15T18:40:08.933Z,100506.88
2019-06-15T18:42:37.754Z,100510.19
2019-06-15T18:45:07.667Z,100505.68
2019-06-15T18:47:39.556Z,100507.04
2019-06-15T18:50:09.467Z,100513.80
2019-06-15T18:52:41.574Z,100515.65
2019-06-15T18:55:11.931Z,100517.59
2019-06-15T18:57:40.746Z,100520.25
2019-06-15T19:00:09.797Z,100521.07
2019-06-15T19:02:38.475Z,100524.84
2019-06-15T19:05:08.835Z,100536.69
2019-06-15T19:07:40.829Z,100538.80
2019-06-15T19:10:09.683Z,100536.28
2019-06-15T19:12:41.436Z,100539.52
2019-06-15T19:15:10.355Z,100546.23
2019-06-15T19:17:41.842Z,100549.04
2019-06-15T19:20:10.967Z,100550.48
2019-06-15T19:22:39.694Z,100567.61
2019-06-15T19:25:08.593Z,100574.30
2019-06-15T19:27:37.320Z,100581.70
2019-06-15T19:30:10.465Z,100599.08
2019-06-15T19:32:42.341Z,100607.23
2019-06-15T19:35:11.254Z,100624.80
2019-06-15T19:37:39.970Z,100642.38
2019-06-15T19:40:10.135Z,100653.97
2019-06-15T19:42:40.370Z,100671.16
2019-06-15T19:45:12.552Z,100689.54
2019-06-15T19:47:41.287Z,100702.89
2019-06-15T19:50:10.510Z,100710.55
2019-06-15T19:52:42.190Z,100713.03
2019-06-15T19:55:11.312Z,100715.39
2019-06-15T19:57:40.055Z,100729.23
2019-06-15T20:00:09.878Z,100729.52
2019-06-15T20:02:39.143Z,100730.42
2019-06-15T20:05:08.692Z,100728.44
2019-06-15T20:07:37.586Z,100728.03
2019-06-15T20:10:10.667Z,100736.55
2019-06-15T20:12:39.637Z,100729.44
2019-06-15T20:15:08.973Z,100742.14
2019-06-15T20:20:09.427Z,100750.03
2019-06-15T20:22:39.569Z,100754.97
2019-06-15T20:25:08.495Z,100754.97
2019-06-15T20:27:37.725Z,100759.59
2019-06-15T20:30:07.873Z,100755.80
2019-06-15T20:32:39.447Z,100752.77
2019-06-15T20:35:16.567Z,100758.56
2019-06-15T20:37:40.078Z,100759.05
2019-06-15T20:40:09.519Z,100761.62
2019-06-15T20:42:41.416Z,100757.78
2019-06-15T20:45:11.038Z,100755.56
2019-06-15T20:47:39.757Z,100751.39
2019-06-15T20:50:22.004Z,100747.33
2019-06-15T20:52:42.206Z,100743.34
2019-06-15T20:55:11.006Z,100741.72
2019-06-15T20:57:39.715Z,100743.36
2019-06-15T21:00:09.573Z,100753.48
2019-06-15T21:02:38.837Z,100748.33
2019-06-15T21:05:09.511Z,100751.55
2019-06-15T21:07:39.595Z,100751.33
2019-06-15T21:10:09.151Z,100756.48
2019-06-15T21:12:37.999Z,100755.45
2019-06-15T21:15:10.663Z,100765.00
2019-06-15T21:17:39.686Z,100774.84
2019-06-15T21:20:11.379Z,100781.73
2019-06-15T21:22:40.043Z,100782.48
2019-06-15T21:25:10.418Z,100789.17
2019-06-15T21:27:42.177Z,100782.12
2019-06-15T21:30:12.405Z,100787.83
2019-06-15T21:32:41.197Z,100795.89
2019-06-15T21:35:10.559Z,100792.46
2019-06-15T21:37:42.243Z,100799.09
2019-06-15T21:40:11.293Z,100805.13
2019-06-15T21:42:40.080Z,100821.45
2019-06-15T21:45:09.535Z,100821.27
2019-06-15T21:47:39.739Z,100822.30
2019-06-15T21:50:09.330Z,100831.57
2019-06-15T21:52:38.110Z,100833.14
2019-06-15T21:55:10.219Z,100834.38
2019-06-15T21:57:40.487Z,100836.67
2019-06-15T22:00:17.383Z,100838.70
2019-06-15T22:02:47.108Z,100846.05
2019-06-15T22:05:16.555Z,100847.91
2019-06-15T22:07:47.683Z,100846.53
2019-06-15T22:10:17.429Z,100844.13
2019-06-15T22:12:46.157Z,100855.20
2019-06-15T22:15:16.093Z,100864.66
2019-06-15T22:17:45.237Z,100862.70
2019-06-15T22:20:16.776Z,100872.70
2019-06-15T22:22:46.891Z,100876.36
2019-06-15T22:25:15.952Z,100877.81
2019-06-15T22:27:46.825Z,100882.77
2019-06-15T22:30:16.983Z,100880.28
2019-06-15T22:32:47.210Z,100893.06
2019-06-15T22:35:16.500Z,100886.92
2019-06-15T22:37:46.742Z,100897.52
2019-06-15T22:40:16.518Z,100899.09
2019-06-15T22:42:47.048Z,100895.23
2019-06-15T22:45:17.174Z,100889.11
2019-06-15T22:47:46.749Z,100901.17
2019-06-15T22:50:16.202Z,100911.37
2019-06-15T22:52:47.147Z,100911.99
2019-06-15T22:55:16.543Z,100914.53
2019-06-15T22:57:46.077Z,100903.95
2019-06-15T23:00:17.143Z,100901.08
2019-06-15T23:02:46.141Z,100902.88
2019-06-15T23:05:17.089Z,100909.27
2019-06-15T23:07:47.267Z,100915.34
2019-06-15T23:10:16.821Z,100904.29
2019-06-15T23:12:46.443Z,100913.53
2019-06-15T23:15:17.411Z,100913.53
2019-06-15T23:17:46.698Z,100924.68
2019-06-15T23:20:17.279Z,100930.58
2019-06-15T23:22:46.771Z,100924.68
2019-06-15T23:25:16.843Z,100917.23
2019-06-15T23:27:46.915Z,100923.48
2019-06-15T23:30:16.240Z,100926.84
2019-06-15T23:32:46.819Z,100930.88
2019-06-15T23:35:19.438Z,100936.65
2019-06-15T23:37:48.220Z,100942.49
2019-06-15T23:40:21.901Z,100941.28
2019-06-15T23:42:51.298Z,100940.32
2019-06-15T23:45:21.233Z,100936.86
2019-06-15T23:47:50.252Z,100937.90
2019-06-15T23:50:20.001Z,100939.28
2019-06-15T23:52:49.134Z,100935.66
2019-06-15T23:55:19.685Z,100935.98
2019-06-15T23:57:48.414Z,100934.50
